createdAt,value
2023-04-27T00:03:11.202Z,5.05
2023-04-27T00:06:53.159Z,5.00
2023-04-27T00:10:35.177Z,4.25
2023-04-27T00:14:16.948Z,4.97
2023-04-27T00:17:58.838Z,4.88
2023-04-27T00:21:40.771Z,5.03
2023-04-27T00:25:22.677Z,4.40
2023-04-27T00:29:04.477Z,5.18
2023-04-27T00:32:46.364Z,4.07
2023-04-27T00:36:28.164Z,4.60
2023-04-27T00:40:10.861Z,4.90
2023-04-27T00:43:52.664Z,4.90
2023-04-27T00:47:35.169Z,4.32
2023-04-27T00:51:17.099Z,4.63
2023-04-27T00:54:59.940Z,4.93
2023-04-27T00:58:41.714Z,4.55
2023-04-27T01:02:23.711Z,5.20
2023-04-27T01:06:05.868Z,4.90
2023-04-27T01:09:47.647Z,4.68
2023-04-27T01:13:29.604Z,5.18
2023-04-27T01:17:11.902Z,4.68
2023-04-27T01:20:53.761Z,4.70
2023-04-27T01:24:35.598Z,5.00
2023-04-27T01:28:17.458Z,4.78
2023-04-27T01:31:59.325Z,4.80
2023-04-27T01:35:41.169Z,6.00
2023-04-27T01:39:23.188Z,4.97
2023-04-27T01:43:05.029Z,4.80
2023-04-27T01:46:46.945Z,5.30
2023-04-27T01:50:28.820Z,5.25
2023-04-27T01:54:10.635Z,4.68
2023-04-27T01:57:52.414Z,4.47
2023-04-27T02:01:34.591Z,4.68
2023-04-27T02:05:16.807Z,6.18
2023-04-27T02:08:58.606Z,5.75
2023-04-27T02:12:40.640Z,5.53
2023-04-27T02:16:22.592Z,7.05
2023-04-27T02:20:07.043Z,6.97
2023-04-27T02:23:48.802Z,5.95
2023-04-27T02:27:30.631Z,6.68
2023-04-27T02:31:14.153Z,6.00
2023-04-27T02:34:56.846Z,7.00
2023-04-27T02:38:38.641Z,5.85
2023-04-27T02:42:21.066Z,5.70
2023-04-27T02:46:04.014Z,6.47
2023-04-27T02:49:45.857Z,6.32
2023-04-27T02:53:27.634Z,6.78
2023-04-27T02:57:09.404Z,6.35
2023-04-27T03:00:55.732Z,6.60
2023-04-27T03:04:38.365Z,6.23
2023-04-27T03:08:20.445Z,6.53
2023-04-27T03:12:02.712Z,6.07
2023-04-27T03:15:44.576Z,6.38
2023-04-27T03:19:26.414Z,7.25
2023-04-27T03:23:08.184Z,6.63
2023-04-27T03:26:50.009Z,6.63
2023-04-27T03:30:31.803Z,6.60
2023-04-27T03:34:13.629Z,7.75
2023-04-27T03:37:55.477Z,6.78
2023-04-27T03:41:37.294Z,7.20
2023-04-27T03:45:19.311Z,6.68
2023-04-27T03:49:01.465Z,7.65
2023-04-27T03:52:43.253Z,8.27
2023-04-27T03:56:25.241Z,7.32
2023-04-27T04:00:11.590Z,7.43
2023-04-27T04:03:53.592Z,7.33
2023-04-27T04:07:35.588Z,7.72
2023-04-27T04:11:17.403Z,8.10
2023-04-27T04:14:59.270Z,8.85
2023-04-27T04:18:41.191Z,7.25
2023-04-27T04:22:23.038Z,7.88
2023-04-27T04:26:05.718Z,8.55
2023-04-27T04:29:48.209Z,7.65
2023-04-27T04:33:29.998Z,7.72
2023-04-27T04:37:11.913Z,8.73
2023-04-27T04:40:53.872Z,8.43
2023-04-27T04:44:35.883Z,8.40
2023-04-27T04:48:18.153Z,8.13
2023-04-27T04:51:59.958Z,8.65
2023-04-27T04:55:41.868Z,9.32
2023-04-27T04:59:23.693Z,10.43
2023-04-27T05:03:07.612Z,8.52
2023-04-27T05:06:49.842Z,9.73
2023-04-27T05:10:31.801Z,10.13
2023-04-27T05:14:13.565Z,9.60
2023-04-27T05:17:55.432Z,10.10
2023-04-27T05:21:37.248Z,10.70
2023-04-27T05:25:19.144Z,10.07
2023-04-27T05:29:00.927Z,9.63
2023-04-27T05:32:42.796Z,10.10
2023-04-27T05:36:24.651Z,11.20
2023-04-27T05:40:09.715Z,10.50
2023-04-27T05:43:51.663Z,10.60
2023-04-27T05:47:33.458Z,11.38
2023-04-27T05:51:15.411Z,10.88
2023-04-27T05:55:01.143Z,12.30
2023-04-27T05:58:43.073Z,11.85
2023-04-27T06:02:25.003Z,11.50
2023-04-27T06:06:06.956Z,12.43
2023-04-27T06:09:48.757Z,12.32
2023-04-27T06:13:32.458Z,11.63
2023-04-27T06:17:14.285Z,13.23
2023-04-27T06:21:01.639Z,12.95
2023-04-27T06:24:43.666Z,11.57
2023-04-27T06:28:25.839Z,12.95
2023-04-27T06:32:07.865Z,11.70
2023-04-27T06:35:49.746Z,11.70
2023-04-27T06:39:32.158Z,11.45
2023-04-27T06:43:13.999Z,13.18
2023-04-27T06:46:55.819Z,11.73
2023-04-27T06:50:37.609Z,12.23
2023-04-27T06:54:19.692Z,11.52
2023-04-27T06:58:02.683Z,11.80
2023-04-27T07:01:44.597Z,11.50
2023-04-27T07:05:27.246Z,12.20
2023-04-27T07:09:20.134Z,12.60
2023-04-27T07:13:09.585Z,12.52
2023-04-27T07:16:51.889Z,12.65
2023-04-27T07:20:33.813Z,11.88
2023-04-27T07:24:15.638Z,12.90
2023-04-27T07:27:59.741Z,12.02
2023-04-27T07:31:41.740Z,11.63
2023-04-27T07:35:23.783Z,13.57
2023-04-27T07:39:08.085Z,12.95
2023-04-27T07:42:50.917Z,13.70
2023-04-27T07:46:32.846Z,11.68
2023-04-27T07:50:16.594Z,16.25
2023-04-27T07:53:58.413Z,11.68
2023-04-27T07:57:40.488Z,12.10
2023-04-27T08:01:22.478Z,12.10
2023-04-27T08:05:04.884Z,12.75
2023-04-27T08:08:47.087Z,11.85
2023-04-27T08:12:28.911Z,10.70
2023-04-27T08:16:11.255Z,11.93
2023-04-27T08:19:53.223Z,13.63
2023-04-27T08:23:37.121Z,10.85
2023-04-27T08:27:19.005Z,12.50
2023-04-27T08:31:00.823Z,11.77
2023-04-27T08:34:44.785Z,11.35
2023-04-27T08:38:26.601Z,12.18
2023-04-27T08:42:12.642Z,11.88
2023-04-27T08:45:54.557Z,12.43
2023-04-27T08:49:38.886Z,11.80
2023-04-27T08:53:22.412Z,13.27
2023-04-27T08:57:12.671Z,11.52
2023-04-27T09:00:54.504Z,11.45
2023-04-27T09:04:40.815Z,9.27
2023-04-27T09:08:22.700Z,11.33
2023-04-27T09:12:17.967Z,10.65
2023-04-27T09:15:59.815Z,10.52
2023-04-27T09:19:41.687Z,9.68
2023-04-27T09:23:34.465Z,11.55
2023-04-27T09:27:23.181Z,9.25
2023-04-27T09:31:05.696Z,9.52
2023-04-27T09:34:47.560Z,9.88
2023-04-27T09:38:30.027Z,9.55
2023-04-27T09:42:13.381Z,8.05
2023-04-27T09:45:56.018Z,8.48
2023-04-27T09:49:38.893Z,8.88
2023-04-27T09:53:26.346Z,8.88
2023-04-27T09:57:46.771Z,9.75
2023-04-27T10:01:37.785Z,10.57
2023-04-27T10:05:32.817Z,9.68
2023-04-27T10:09:15.089Z,9.93
2023-04-27T10:13:01.734Z,9.48
2023-04-27T10:16:54.692Z,9.75
2023-04-27T10:20:37.836Z,9.43
2023-04-27T10:24:19.747Z,9.68
2023-04-27T10:28:03.191Z,10.85
2023-04-27T10:31:48.350Z,9.10
2023-04-27T10:35:38.419Z,9.63
2023-04-27T10:39:35.962Z,9.68
2023-04-27T10:43:27.704Z,8.65
2023-04-27T10:47:17.285Z,9.82
2023-04-27T10:51:01.233Z,10.32
2023-04-27T10:54:46.590Z,9.88
2023-04-27T10:58:37.817Z,9.85
2023-04-27T11:02:29.747Z,9.77
2023-04-27T11:06:11.677Z,10.95
2023-04-27T11:09:53.713Z,9.05
2023-04-27T11:13:35.618Z,9.23
2023-04-27T11:17:27.617Z,9.98
2023-04-27T11:21:17.692Z,9.38
2023-04-27T11:24:59.628Z,9.80
2023-04-27T11:28:42.322Z,11.65
2023-04-27T11:32:25.755Z,9.73
2023-04-27T11:36:21.644Z,9.77
2023-04-27T11:40:04.784Z,10.10
2023-04-27T11:43:49.147Z,12.38
2023-04-27T11:47:33.537Z,12.18
2023-04-27T11:51:15.462Z,9.80
2023-04-27T11:54:57.454Z,10.25
2023-04-27T11:58:40.483Z,10.80
2023-04-27T12:02:22.803Z,10.75
2023-04-27T12:06:21.264Z,12.27
2023-04-27T12:10:07.980Z,12.55
2023-04-27T12:13:49.779Z,12.40
2023-04-27T12:17:31.664Z,12.55
2023-04-27T12:21:14.327Z,12.25
2023-04-27T12:24:56.209Z,13.52
2023-04-27T12:28:38.078Z,13.75
2023-04-27T12:32:20.157Z,13.35
2023-04-27T12:36:02.079Z,12.93
2023-04-27T12:39:43.951Z,13.35
2023-04-27T12:43:26.370Z,13.85
2023-04-27T12:47:08.182Z,13.38
2023-04-27T12:50:50.317Z,15.30
2023-04-27T12:54:32.079Z,13.95
2023-04-27T12:58:14.788Z,14.80
2023-04-27T13:01:56.746Z,13.82
2023-04-27T13:05:38.598Z,14.45
2023-04-27T13:09:21.202Z,15.38
2023-04-27T13:13:03.762Z,14.52
2023-04-27T13:16:45.793Z,14.57
2023-04-27T13:20:27.687Z,15.90
2023-04-27T13:24:09.590Z,14.95
2023-04-27T13:27:51.714Z,14.93
2023-04-27T13:31:33.575Z,13.48
2023-04-27T13:35:15.846Z,15.98
2023-04-27T13:38:57.710Z,15.65
2023-04-27T13:42:40.392Z,15.73
2023-04-27T13:46:22.348Z,13.73
2023-04-27T13:50:09.102Z,15.27
2023-04-27T13:53:51.087Z,14.70
2023-04-27T13:57:32.973Z,15.73
2023-04-27T14:01:14.802Z,15.05
2023-04-27T14:04:57.578Z,15.60
2023-04-27T14:08:39.472Z,15.48
2023-04-27T14:12:21.383Z,18.30
2023-04-27T14:16:03.330Z,14.88
2023-04-27T14:19:45.150Z,14.85
2023-04-27T14:23:26.943Z,15.82
2023-04-27T14:27:09.155Z,16.50
2023-04-27T14:30:51.948Z,15.00
2023-04-27T14:34:33.874Z,14.23
2023-04-27T14:38:15.796Z,14.77
2023-04-27T14:41:57.614Z,14.32
2023-04-27T14:45:48.022Z,14.63
2023-04-27T14:49:33.343Z,13.20
2023-04-27T14:53:15.146Z,14.25
2023-04-27T14:56:58.596Z,14.20
2023-04-27T15:00:40.760Z,13.52
2023-04-27T15:04:23.325Z,15.68
2023-04-27T15:08:05.244Z,15.57
2023-04-27T15:11:47.166Z,13.35
2023-04-27T15:15:29.393Z,13.75
2023-04-27T15:19:11.934Z,13.77
2023-04-27T15:22:54.390Z,13.25
2023-04-27T15:26:36.259Z,13.13
2023-04-27T15:30:18.045Z,12.20
2023-04-27T15:33:59.816Z,13.23
2023-04-27T15:37:41.661Z,12.55
2023-04-27T15:41:23.541Z,11.13
2023-04-27T15:45:08.018Z,11.55
2023-04-27T15:48:51.326Z,10.60
2023-04-27T15:52:33.911Z,8.98
2023-04-27T15:56:16.332Z,8.30
2023-04-27T15:59:58.146Z,8.95
2023-04-27T16:03:40.054Z,9.32
2023-04-27T16:07:22.098Z,9.30
2023-04-27T16:11:04.061Z,8.27
2023-04-27T16:14:45.957Z,7.60
2023-04-27T16:18:27.935Z,7.40
2023-04-27T16:22:09.737Z,7.65
2023-04-27T16:25:51.625Z,8.00
2023-04-27T16:29:33.451Z,7.55
2023-04-27T16:33:15.553Z,6.90
2023-04-27T16:36:57.381Z,5.75
2023-04-27T16:40:39.289Z,5.45
2023-04-27T16:44:21.167Z,5.60
2023-04-27T16:48:11.608Z,6.03
2023-04-27T16:51:54.427Z,6.07
2023-04-27T16:55:36.307Z,7.30
2023-04-27T16:59:18.133Z,6.22
2023-04-27T17:02:59.967Z,6.50
2023-04-27T17:06:42.100Z,5.18
2023-04-27T17:10:25.482Z,5.78
2023-04-27T17:14:07.284Z,4.65
2023-04-27T17:17:49.147Z,5.50
2023-04-27T17:21:32.147Z,4.10
2023-04-27T17:25:13.971Z,3.78
2023-04-27T17:28:59.904Z,3.78
2023-04-27T17:32:41.991Z,3.10
2023-04-27T17:36:23.891Z,3.40
2023-04-27T17:40:09.589Z,3.75
2023-04-27T17:43:51.711Z,3.00
2023-04-27T17:47:33.872Z,2.67
2023-04-27T17:51:15.901Z,2.80
2023-04-27T17:54:57.697Z,2.47
2023-04-27T17:58:39.620Z,2.30
2023-04-27T18:02:21.673Z,2.25
2023-04-27T18:06:03.629Z,1.77
2023-04-27T18:09:45.783Z,2.38
2023-04-27T18:13:27.924Z,2.20
2023-04-27T18:17:09.779Z,2.13
2023-04-27T18:20:51.575Z,2.10
2023-04-27T18:24:33.423Z,1.70
2023-04-27T18:28:15.462Z,2.35
2023-04-27T18:31:58.484Z,2.67
2023-04-27T18:35:40.336Z,2.72
2023-04-27T18:39:22.235Z,2.47
2023-04-27T18:43:04.322Z,1.60
2023-04-27T18:46:46.317Z,1.90
2023-04-27T18:50:28.255Z,1.70
2023-04-27T18:54:10.546Z,2.08
2023-04-27T18:57:53.437Z,2.05
2023-04-27T19:01:37.071Z,1.60
2023-04-27T19:05:20.112Z,2.00
2023-04-27T19:09:02.399Z,1.73
2023-04-27T19:12:44.312Z,1.65
2023-04-27T19:16:26.274Z,1.65
2023-04-27T19:20:09.820Z,2.20
2023-04-27T19:23:52.074Z,2.08
2023-04-27T19:27:33.886Z,2.05
2023-04-27T19:31:16.250Z,1.60
2023-04-27T19:34:59.918Z,2.13
2023-04-27T19:38:41.837Z,2.00
2023-04-27T19:42:24.975Z,2.00
2023-04-27T19:46:06.987Z,1.77
2023-04-27T19:49:48.896Z,1.98
2023-04-27T19:53:30.785Z,1.70
2023-04-27T19:57:13.029Z,1.70
2023-04-27T20:00:55.071Z,1.60
2023-04-27T20:04:37.568Z,2.00
2023-04-27T20:08:19.505Z,1.60
2023-04-27T20:12:01.452Z,1.58
2023-04-27T20:15:43.343Z,1.35
2023-04-27T20:19:25.270Z,1.58
2023-04-27T20:23:07.208Z,3.10
2023-04-27T20:26:49.352Z,1.42
2023-04-27T20:30:31.225Z,1.50
2023-04-27T20:34:13.186Z,1.55
2023-04-27T20:37:57.979Z,1.48
2023-04-27T20:41:41.830Z,1.25
2023-04-27T20:45:23.912Z,1.15
2023-04-27T20:49:05.963Z,1.50
2023-04-27T20:52:48.091Z,1.48
2023-04-27T20:56:30.681Z,2.45
2023-04-27T21:00:15.381Z,2.30
2023-04-27T21:03:57.281Z,2.70
2023-04-27T21:07:39.169Z,3.80
2023-04-27T21:11:21.012Z,3.65
2023-04-27T21:15:03.253Z,4.28
2023-04-27T21:18:46.106Z,4.30
2023-04-27T21:22:27.952Z,5.10
2023-04-27T21:26:10.795Z,5.45
2023-04-27T21:29:53.279Z,5.72
2023-04-27T21:33:35.156Z,5.65
2023-04-27T21:37:16.977Z,5.28
2023-04-27T21:40:59.392Z,5.50
2023-04-27T21:44:41.157Z,5.70
2023-04-27T21:48:23.097Z,5.97
2023-04-27T21:52:05.089Z,6.28
2023-04-27T21:55:46.945Z,5.97
2023-04-27T21:59:28.839Z,6.40
2023-04-27T22:03:10.765Z,5.78
2023-04-27T22:06:52.690Z,6.57
2023-04-27T22:10:34.913Z,7.18
2023-04-27T22:14:17.332Z,6.75
2023-04-27T22:17:59.536Z,7.38
2023-04-27T22:21:41.371Z,8.02
2023-04-27T22:25:23.503Z,8.32
2023-04-27T22:29:05.328Z,6.95
2023-04-27T22:32:47.309Z,7.57
2023-04-27T22:36:29.185Z,8.10
2023-04-27T22:40:12.111Z,7.35
2023-04-27T22:43:53.893Z,7.63
2023-04-27T22:47:35.861Z,7.45
2023-04-27T22:51:17.932Z,8.10
2023-04-27T22:55:03.329Z,8.40
2023-04-27T22:58:45.136Z,8.63
2023-04-27T23:02:27.030Z,8.68
2023-04-27T23:06:14.375Z,7.63
2023-04-27T23:10:02.880Z,6.50
2023-04-27T23:13:48.133Z,7.45
2023-04-27T23:17:33.022Z,7.38
2023-04-27T23:21:14.882Z,6.75
2023-04-27T23:24:56.720Z,6.57
2023-04-27T23:28:38.531Z,6.55
2023-04-27T23:32:20.877Z,6.28
2023-04-27T23:36:03.511Z,5.03
2023-04-27T23:39:45.477Z,5.45
2023-04-27T23:43:27.651Z,5.28
2023-04-27T23:47:09.687Z,5.30
2023-04-27T23:51:02.717Z,4.57
2023-04-27T23:54:44.492Z,3.90
2023-04-27T23:58:26.777Z,3.95
